sensor_id;sensor_type;location;lat;lon;timestamp;pressure;altitude;pressure_sealevel;temperature;humidity
69980;BME280;57318;56.232;43.944;2022-12-05T00:00:46;102299.31;;;-14.25;68.08
69980;BME280;57318;56.232;43.944;2022-12-05T00:03:12;102300.19;;;-14.25;68.08
69980;BME280;57318;56.232;43.944;2022-12-05T00:05:41;102303.22;;;-14.30;68.23
69980;BME280;57318;56.232;43.944;2022-12-05T00:08:07;102301.25;;;-14.35;68.23
69980;BME280;57318;56.232;43.944;2022-12-05T00:10:35;102295.84;;;-14.39;68.36
69980;BME280;57318;56.232;43.944;2022-12-05T00:13:01;102294.66;;;-14.44;68.59
69980;BME280;57318;56.232;43.944;2022-12-05T00:15:27;102294.91;;;-14.53;68.47
69980;BME280;57318;56.232;43.944;2022-12-05T00:17:52;102300.56;;;-14.57;68.89
69980;BME280;57318;56.232;43.944;2022-12-05T00:20:18;102298.53;;;-14.63;68.83
69980;BME280;57318;56.232;43.944;2022-12-05T00:22:45;102294.88;;;-14.66;68.84
69980;BME280;57318;56.232;43.944;2022-12-05T00:25:11;102295.69;;;-14.67;69.07
69980;BME280;57318;56.232;43.944;2022-12-05T00:27:38;102293.13;;;-14.67;69.26
69980;BME280;57318;56.232;43.944;2022-12-05T00:30:05;102290.69;;;-14.66;69.34
69980;BME280;57318;56.232;43.944;2022-12-05T00:32:31;102290.69;;;-14.66;68.84
69980;BME280;57318;56.232;43.944;2022-12-05T00:34:57;102291.56;;;-14.65;69.06
69980;BME280;57318;56.232;43.944;2022-12-05T00:37:23;102285.56;;;-14.66;68.96
69980;BME280;57318;56.232;43.944;2022-12-05T00:39:49;102288.22;;;-14.64;69.01
69980;BME280;57318;56.232;43.944;2022-12-05T00:42:14;102291.09;;;-14.60;68.42
69980;BME280;57318;56.232;43.944;2022-12-05T00:44:40;102290.25;;;-14.59;68.41
69980;BME280;57318;56.232;43.944;2022-12-05T00:47:06;102297.25;;;-14.56;68.62
69980;BME280;57318;56.232;43.944;2022-12-05T00:49:31;102295.47;;;-14.57;68.20
69980;BME280;57318;56.232;43.944;2022-12-05T00:52:17;102294.41;;;-14.61;68.30
69980;BME280;57318;56.232;43.944;2022-12-05T00:54:43;102284.78;;;-14.65;68.57
69980;BME280;57318;56.232;43.944;2022-12-05T00:57:08;102292.44;;;-14.65;68.66
69980;BME280;57318;56.232;43.944;2022-12-05T00:59:34;102284.09;;;-14.62;68.73
69980;BME280;57318;56.232;43.944;2022-12-05T01:01:59;102287.63;;;-14.60;68.77
69980;BME280;57318;56.232;43.944;2022-12-05T01:04:25;102294.22;;;-14.64;68.61
69980;BME280;57318;56.232;43.944;2022-12-05T01:06:54;102282.44;;;-14.62;68.97
69980;BME280;57318;56.232;43.944;2022-12-05T01:09:20;102278.03;;;-14.64;69.15
69980;BME280;57318;56.232;43.944;2022-12-05T01:11:46;102281.25;;;-14.67;69.07
69980;BME280;57318;56.232;43.944;2022-12-05T01:14:13;102273.38;;;-14.70;69.68
69980;BME280;57318;56.232;43.944;2022-12-05T01:16:41;102276.03;;;-14.68;69.50
69980;BME280;57318;56.232;43.944;2022-12-05T01:19:12;102282.00;;;-14.68;69.29
69980;BME280;57318;56.232;43.944;2022-12-05T01:21:39;102279.47;;;-14.68;69.30
69980;BME280;57318;56.232;43.944;2022-12-05T01:24:05;102272.81;;;-14.66;69.71
69980;BME280;57318;56.232;43.944;2022-12-05T01:26:31;102276.34;;;-14.64;69.49
69980;BME280;57318;56.232;43.944;2022-12-05T01:28:57;102278.34;;;-14.60;69.59
69980;BME280;57318;56.232;43.944;2022-12-05T01:31:32;102274.19;;;-14.58;69.81
69980;BME280;57318;56.232;43.944;2022-12-05T01:33:59;102276.16;;;-14.54;69.60
69980;BME280;57318;56.232;43.944;2022-12-05T01:36:26;102282.25;;;-14.52;69.60
69980;BME280;57318;56.232;43.944;2022-12-05T01:38:52;102279.03;;;-14.49;69.74
69980;BME280;57318;56.232;43.944;2022-12-05T01:41:32;102277.13;;;-14.52;69.42
69980;BME280;57318;56.232;43.944;2022-12-05T01:46:35;102278.31;;;-14.46;69.93
69980;BME280;57318;56.232;43.944;2022-12-05T01:49:15;102278.53;;;-14.43;69.91
69980;BME280;57318;56.232;43.944;2022-12-05T01:51:44;102273.53;;;-14.42;69.64
69980;BME280;57318;56.232;43.944;2022-12-05T01:54:11;102270.19;;;-14.41;69.43
69980;BME280;57318;56.232;43.944;2022-12-05T01:56:39;102265.97;;;-14.40;70.07
69980;BME280;57318;56.232;43.944;2022-12-05T01:59:07;102266.84;;;-14.40;70.05
69980;BME280;57318;56.232;43.944;2022-12-05T02:01:35;102268.63;;;-14.39;69.94
69980;BME280;57318;56.232;43.944;2022-12-05T02:04:01;102266.94;;;-14.38;69.99
69980;BME280;57318;56.232;43.944;2022-12-05T02:06:27;102260.00;;;-14.41;70.13
69980;BME280;57318;56.232;43.944;2022-12-05T02:08:53;102254.06;;;-14.40;70.52
69980;BME280;57318;56.232;43.944;2022-12-05T02:11:19;102250.97;;;-14.36;70.46
69980;BME280;57318;56.232;43.944;2022-12-05T02:13:56;102247.13;;;-14.29;70.55
69980;BME280;57318;56.232;43.944;2022-12-05T02:16:34;102237.31;;;-14.23;70.74
69980;BME280;57318;56.232;43.944;2022-12-05T02:24:54;102243.53;;;-14.19;71.21
69980;BME280;57318;56.232;43.944;2022-12-05T02:30:11;102239.81;;;-14.11;70.79
69980;BME280;57318;56.232;43.944;2022-12-05T02:35:55;102232.53;;;-14.05;70.45
69980;BME280;57318;56.232;43.944;2022-12-05T02:38:33;102225.53;;;-14.07;70.65
69980;BME280;57318;56.232;43.944;2022-12-05T02:46:23;102225.75;;;-14.04;70.65
69980;BME280;57318;56.232;43.944;2022-12-05T02:48:55;102216.28;;;-14.05;70.45
69980;BME280;57318;56.232;43.944;2022-12-05T02:51:26;102224.38;;;-14.12;70.84
69980;BME280;57318;56.232;43.944;2022-12-05T02:53:53;102217.88;;;-14.21;70.77
69980;BME280;57318;56.232;43.944;2022-12-05T02:56:22;102213.34;;;-14.25;70.72
69980;BME280;57318;56.232;43.944;2022-12-05T02:58:53;102217.28;;;-14.30;70.72
69980;BME280;57318;56.232;43.944;2022-12-05T03:01:22;102207.94;;;-14.29;70.94
69980;BME280;57318;56.232;43.944;2022-12-05T03:03:48;102212.38;;;-14.27;70.71
69980;BME280;57318;56.232;43.944;2022-12-05T03:06:19;102212.19;;;-14.30;70.82
69980;BME280;57318;56.232;43.944;2022-12-05T03:08:53;102211.16;;;-14.32;70.63
69980;BME280;57318;56.232;43.944;2022-12-05T03:11:20;102207.63;;;-14.34;70.56
69980;BME280;57318;56.232;43.944;2022-12-05T03:13:54;102208.41;;;-14.35;70.72
69980;BME280;57318;56.232;43.944;2022-12-05T03:16:38;102206.47;;;-14.39;70.62
69980;BME280;57318;56.232;43.944;2022-12-05T03:19:13;102205.38;;;-14.43;70.57
69980;BME280;57318;56.232;43.944;2022-12-05T03:21:48;102196.81;;;-14.43;70.73
69980;BME280;57318;56.232;43.944;2022-12-05T03:24:17;102201.72;;;-14.46;70.98
69980;BME280;57318;56.232;43.944;2022-12-05T03:37:34;102183.44;;;-14.53;71.66
69980;BME280;57318;56.232;43.944;2022-12-05T03:40:10;102178.94;;;-14.57;71.62
69980;BME280;57318;56.232;43.944;2022-12-05T03:42:42;102178.78;;;-14.60;71.54
69980;BME280;57318;56.232;43.944;2022-12-05T03:45:15;102177.75;;;-14.62;71.46
69980;BME280;57318;56.232;43.944;2022-12-05T03:47:49;102175.22;;;-14.62;71.67
69980;BME280;57318;56.232;43.944;2022-12-05T03:50:24;102174.22;;;-14.64;71.69
69980;BME280;57318;56.232;43.944;2022-12-05T03:52:58;102172.56;;;-14.63;72.02
69980;BME280;57318;56.232;43.944;2022-12-05T03:55:28;102171.69;;;-14.64;71.64
69980;BME280;57318;56.232;43.944;2022-12-05T03:58:03;102166.28;;;-14.68;72.06
69980;BME280;57318;56.232;43.944;2022-12-05T04:00:34;102167.94;;;-14.69;72.06
69980;BME280;57318;56.232;43.944;2022-12-05T04:03:12;102155.75;;;-14.73;72.14
69980;BME280;57318;56.232;43.944;2022-12-05T04:05:54;102157.34;;;-14.75;72.17
69980;BME280;57318;56.232;43.944;2022-12-05T04:08:39;102158.69;;;-14.80;72.10
69980;BME280;57318;56.232;43.944;2022-12-05T04:11:13;102155.94;;;-14.83;72.16
69980;BME280;57318;56.232;43.944;2022-12-05T04:13:54;102158.28;;;-14.86;72.16
69980;BME280;57318;56.232;43.944;2022-12-05T04:16:29;102156.31;;;-14.91;72.28
69980;BME280;57318;56.232;43.944;2022-12-05T04:21:43;102145.28;;;-15.03;72.35
69980;BME280;57318;56.232;43.944;2022-12-05T04:24:16;102147.53;;;-15.08;72.45
69980;BME280;57318;56.232;43.944;2022-12-05T04:27:21;102147.91;;;-15.15;72.16
69980;BME280;57318;56.232;43.944;2022-12-05T04:29:59;102150.91;;;-15.20;72.62
69980;BME280;57318;56.232;43.944;2022-12-05T04:32:35;102146.47;;;-15.23;72.64
69980;BME280;57318;56.232;43.944;2022-12-05T04:35:08;102142.06;;;-15.26;72.68
69980;BME280;57318;56.232;43.944;2022-12-05T04:37:39;102144.41;;;-15.29;73.03
69980;BME280;57318;56.232;43.944;2022-12-05T04:40:16;102142.84;;;-15.27;73.18
69980;BME280;57318;56.232;43.944;2022-12-05T04:42:44;102139.72;;;-15.22;73.45
69980;BME280;57318;56.232;43.944;2022-12-05T04:45:14;102133.06;;;-15.20;73.38
69980;BME280;57318;56.232;43.944;2022-12-05T04:47:47;102144.25;;;-15.18;73.59
69980;BME280;57318;56.232;43.944;2022-12-05T04:50:16;102133.47;;;-15.14;73.75
69980;BME280;57318;56.232;43.944;2022-12-05T04:52:45;102135.47;;;-15.10;73.87
69980;BME280;57318;56.232;43.944;2022-12-05T04:55:19;102133.31;;;-15.04;73.92
69980;BME280;57318;56.232;43.944;2022-12-05T05:00:27;102122.22;;;-15.04;73.46
69980;BME280;57318;56.232;43.944;2022-12-05T05:02:57;102119.56;;;-15.06;73.24
69980;BME280;57318;56.232;43.944;2022-12-05T05:05:26;102110.25;;;-15.05;73.31
69980;BME280;57318;56.232;43.944;2022-12-05T05:07:53;102116.56;;;-15.00;73.53
69980;BME280;57318;56.232;43.944;2022-12-05T05:10:26;102121.34;;;-14.92;73.78
69980;BME280;57318;56.232;43.944;2022-12-05T05:12:56;102105.88;;;-14.81;74.04
69980;BME280;57318;56.232;43.944;2022-12-05T05:15:22;102108.28;;;-14.71;74.23
69980;BME280;57318;56.232;43.944;2022-12-05T05:17:47;102099.34;;;-14.64;73.91
69980;BME280;57318;56.232;43.944;2022-12-05T05:20:13;102091.88;;;-14.61;73.62
69980;BME280;57318;56.232;43.944;2022-12-05T05:22:53;102094.59;;;-14.58;73.79
69980;BME280;57318;56.232;43.944;2022-12-05T05:25:19;102081.94;;;-14.57;73.48
69980;BME280;57318;56.232;43.944;2022-12-05T05:27:50;102078.88;;;-14.51;73.43
69980;BME280;57318;56.232;43.944;2022-12-05T05:30:17;102077.41;;;-14.47;72.88
69980;BME280;57318;56.232;43.944;2022-12-05T05:32:43;102078.38;;;-14.45;73.25
69980;BME280;57318;56.232;43.944;2022-12-05T05:35:10;102075.72;;;-14.34;73.50
69980;BME280;57318;56.232;43.944;2022-12-05T05:37:36;102070.44;;;-13.95;73.40
69980;BME280;57318;56.232;43.944;2022-12-05T05:40:03;102073.03;;;-13.67;72.45
69980;BME280;57318;56.232;43.944;2022-12-05T05:42:29;102082.19;;;-13.42;71.23
69980;BME280;57318;56.232;43.944;2022-12-05T05:44:54;102067.53;;;-13.15;70.22
69980;BME280;57318;56.232;43.944;2022-12-05T05:47:20;102067.25;;;-12.60;68.43
69980;BME280;57318;56.232;43.944;2022-12-05T05:49:45;102076.72;;;-11.80;66.07
69980;BME280;57318;56.232;43.944;2022-12-05T05:52:11;102075.69;;;-11.50;64.36
69980;BME280;57318;56.232;43.944;2022-12-05T05:54:36;102070.13;;;-11.41;63.45
69980;BME280;57318;56.232;43.944;2022-12-05T05:57:02;102070.41;;;-11.53;63.23
69980;BME280;57318;56.232;43.944;2022-12-05T05:59:28;102069.97;;;-11.77;63.32
69980;BME280;57318;56.232;43.944;2022-12-05T06:01:53;102068.03;;;-11.32;62.89
69980;BME280;57318;56.232;43.944;2022-12-05T06:04:19;102068.69;;;-10.85;61.63
69980;BME280;57318;56.232;43.944;2022-12-05T06:06:44;102072.34;;;-10.80;60.67
69980;BME280;57318;56.232;43.944;2022-12-05T06:09:10;102074.59;;;-11.21;61.01
69980;BME280;57318;56.232;43.944;2022-12-05T06:11:36;102074.25;;;-11.45;61.94
69980;BME280;57318;56.232;43.944;2022-12-05T06:14:01;102071.13;;;-11.39;62.10
69980;BME280;57318;56.232;43.944;2022-12-05T06:16:28;102071.03;;;-11.41;61.86
69980;BME280;57318;56.232;43.944;2022-12-05T06:18:54;102061.84;;;-11.03;61.27
69980;BME280;57318;56.232;43.944;2022-12-05T06:21:20;102059.41;;;-10.10;59.10
69980;BME280;57318;56.232;43.944;2022-12-05T06:23:48;102051.03;;;-9.28;57.44
69980;BME280;57318;56.232;43.944;2022-12-05T06:26:16;102057.59;;;-8.51;54.67
69980;BME280;57318;56.232;43.944;2022-12-05T06:28:42;102054.19;;;-7.34;52.53
69980;BME280;57318;56.232;43.944;2022-12-05T06:31:13;102047.84;;;-6.12;49.46
69980;BME280;57318;56.232;43.944;2022-12-05T06:33:39;102058.00;;;-5.28;46.02
69980;BME280;57318;56.232;43.944;2022-12-05T06:36:08;102041.91;;;-4.46;45.19
69980;BME280;57318;56.232;43.944;2022-12-05T06:38:34;102042.84;;;-4.04;43.90
69980;BME280;57318;56.232;43.944;2022-12-05T06:41:04;102040.78;;;-3.35;41.31
69980;BME280;57318;56.232;43.944;2022-12-05T06:43:29;102035.50;;;-2.91;40.80
69980;BME280;57318;56.232;43.944;2022-12-05T06:45:55;102038.72;;;-3.06;40.14
69980;BME280;57318;56.232;43.944;2022-12-05T06:48:22;102032.84;;;-3.41;39.91
69980;BME280;57318;56.232;43.944;2022-12-05T06:50:49;102042.69;;;-4.10;40.68
69980;BME280;57318;56.232;43.944;2022-12-05T06:53:15;102044.34;;;-4.14;41.39
69980;BME280;57318;56.232;43.944;2022-12-05T06:55:41;102041.22;;;-3.58;39.83
69980;BME280;57318;56.232;43.944;2022-12-05T06:58:07;102045.28;;;-3.27;39.38
69980;BME280;57318;56.232;43.944;2022-12-05T07:00:33;102042.53;;;-2.85;37.91
69980;BME280;57318;56.232;43.944;2022-12-05T07:03:17;102036.44;;;-2.32;37.07
69980;BME280;57318;56.232;43.944;2022-12-05T07:05:42;102042.06;;;-2.03;36.27
69980;BME280;57318;56.232;43.944;2022-12-05T07:08:08;102042.78;;;-1.48;36.22
69980;BME280;57318;56.232;43.944;2022-12-05T07:10:33;102041.41;;;-1.15;34.55
69980;BME280;57318;56.232;43.944;2022-12-05T07:12:59;102035.97;;;-1.33;35.21
69980;BME280;57318;56.232;43.944;2022-12-05T07:15:24;102035.84;;;-0.49;34.65
69980;BME280;57318;56.232;43.944;2022-12-05T07:17:50;102038.84;;;0.08;33.30
69980;BME280;57318;56.232;43.944;2022-12-05T07:20:16;102027.75;;;0.73;32.10
69980;BME280;57318;56.232;43.944;2022-12-05T07:22:43;102027.75;;;0.97;31.89
69980;BME280;57318;56.232;43.944;2022-12-05T07:25:10;102033.03;;;1.43;30.74
69980;BME280;57318;56.232;43.944;2022-12-05T07:27:35;102021.66;;;1.58;31.17
69980;BME280;57318;56.232;43.944;2022-12-05T07:30:01;102027.66;;;2.07;30.38
69980;BME280;57318;56.232;43.944;2022-12-05T07:32:31;102019.66;;;2.44;29.20
69980;BME280;57318;56.232;43.944;2022-12-05T07:34:58;102022.41;;;2.07;29.30
69980;BME280;57318;56.232;43.944;2022-12-05T07:37:23;102013.69;;;2.09;30.09
69980;BME280;57318;56.232;43.944;2022-12-05T07:39:53;102006.66;;;2.17;28.88
69980;BME280;57318;56.232;43.944;2022-12-05T07:42:18;102005.06;;;1.58;29.43
69980;BME280;57318;56.232;43.944;2022-12-05T07:44:44;102006.63;;;2.24;28.61
69980;BME280;57318;56.232;43.944;2022-12-05T07:47:10;102011.91;;;2.14;28.99
69980;BME280;57318;56.232;43.944;2022-12-05T07:49:35;102008.34;;;2.28;28.59
69980;BME280;57318;56.232;43.944;2022-12-05T07:52:01;101997.97;;;2.05;28.87
69980;BME280;57318;56.232;43.944;2022-12-05T07:54:27;102002.25;;;2.24;28.84
69980;BME280;57318;56.232;43.944;2022-12-05T07:56:52;101997.91;;;2.15;28.20
69980;BME280;57318;56.232;43.944;2022-12-05T07:59:18;101989.91;;;2.43;28.26
69980;BME280;57318;56.232;43.944;2022-12-05T08:01:44;101988.03;;;2.64;28.16
69980;BME280;57318;56.232;43.944;2022-12-05T08:04:09;101980.72;;;3.07;27.44
69980;BME280;57318;56.232;43.944;2022-12-05T08:06:36;101976.94;;;3.38;27.46
69980;BME280;57318;56.232;43.944;2022-12-05T08:09:02;101973.16;;;3.68;26.80
69980;BME280;57318;56.232;43.944;2022-12-05T08:11:32;101978.28;;;2.83;27.19
69980;BME280;57318;56.232;43.944;2022-12-05T08:14:01;101980.41;;;3.43;26.56
69980;BME280;57318;56.232;43.944;2022-12-05T08:16:27;101972.47;;;3.51;26.43
69980;BME280;57318;56.232;43.944;2022-12-05T08:19:06;101975.44;;;3.11;27.43
69980;BME280;57318;56.232;43.944;2022-12-05T08:21:32;101958.28;;;3.66;26.15
69980;BME280;57318;56.232;43.944;2022-12-05T08:23:58;101963.50;;;3.69;26.42
69980;BME280;57318;56.232;43.944;2022-12-05T08:26:29;101965.59;;;3.36;26.54
69980;BME280;57318;56.232;43.944;2022-12-05T08:29:00;101958.97;;;2.92;26.72
69980;BME280;57318;56.232;43.944;2022-12-05T08:31:28;101966.88;;;2.88;27.41
69980;BME280;57318;56.232;43.944;2022-12-05T08:33:56;101966.78;;;2.98;27.52
69980;BME280;57318;56.232;43.944;2022-12-05T08:36:22;101962.44;;;2.94;27.21
69980;BME280;57318;56.232;43.944;2022-12-05T08:38:48;101966.91;;;2.81;28.09
69980;BME280;57318;56.232;43.944;2022-12-05T08:41:16;101960.81;;;2.80;27.53
69980;BME280;57318;56.232;43.944;2022-12-05T08:43:43;101960.69;;;2.96;27.06
69980;BME280;57318;56.232;43.944;2022-12-05T08:46:10;101955.06;;;3.36;26.89
69980;BME280;57318;56.232;43.944;2022-12-05T08:48:36;101957.97;;;3.93;26.18
69980;BME280;57318;56.232;43.944;2022-12-05T08:51:09;101953.91;;;3.63;26.58
69980;BME280;57318;56.232;43.944;2022-12-05T08:53:36;101956.50;;;3.66;26.77
69980;BME280;57318;56.232;43.944;2022-12-05T08:56:04;101961.41;;;3.98;26.64
69980;BME280;57318;56.232;43.944;2022-12-05T08:58:30;101951.94;;;3.85;26.04
69980;BME280;57318;56.232;43.944;2022-12-05T09:01:16;101939.97;;;4.29;25.90
69980;BME280;57318;56.232;43.944;2022-12-05T09:03:43;101947.63;;;3.78;25.92
69980;BME280;57318;56.232;43.944;2022-12-05T09:06:21;101935.75;;;4.16;25.69
69980;BME280;57318;56.232;43.944;2022-12-05T09:08:47;101928.91;;;4.03;25.75
69980;BME280;57318;56.232;43.944;2022-12-05T09:11:19;101930.63;;;4.05;25.56
69980;BME280;57318;56.232;43.944;2022-12-05T09:13:46;101927.94;;;4.08;25.52
69980;BME280;57318;56.232;43.944;2022-12-05T09:16:18;101923.03;;;3.82;25.83
69980;BME280;57318;56.232;43.944;2022-12-05T09:18:44;101924.41;;;3.36;26.57
69980;BME280;57318;56.232;43.944;2022-12-05T09:21:16;101917.84;;;3.77;26.49
69980;BME280;57318;56.232;43.944;2022-12-05T09:23:42;101916.53;;;4.09;25.42
69980;BME280;57318;56.232;43.944;2022-12-05T09:26:11;101920.75;;;4.21;25.36
69980;BME280;57318;56.232;43.944;2022-12-05T09:28:37;101918.13;;;3.51;26.42
69980;BME280;57318;56.232;43.944;2022-12-05T09:31:12;101910.47;;;3.27;26.58
69980;BME280;57318;56.232;43.944;2022-12-05T09:33:37;101899.56;;;3.65;26.11
69980;BME280;57318;56.232;43.944;2022-12-05T09:36:14;101903.91;;;3.68;26.41
69980;BME280;57318;56.232;43.944;2022-12-05T09:38:41;101890.09;;;3.49;26.16
69980;BME280;57318;56.232;43.944;2022-12-05T09:46:51;101887.63;;;4.08;25.76
69980;BME280;57318;56.232;43.944;2022-12-05T09:49:20;101879.06;;;4.52;25.40
69980;BME280;57318;56.232;43.944;2022-12-05T09:51:47;101883.88;;;4.24;25.62
69980;BME280;57318;56.232;43.944;2022-12-05T09:54:14;101877.63;;;4.31;24.95
69980;BME280;57318;56.232;43.944;2022-12-05T09:56:42;101876.84;;;5.29;24.11
69980;BME280;57318;56.232;43.944;2022-12-05T09:59:12;101882.88;;;4.89;23.96
69980;BME280;57318;56.232;43.944;2022-12-05T10:01:56;101878.69;;;4.18;24.87
69980;BME280;57318;56.232;43.944;2022-12-05T10:15:45;101857.09;;;3.24;25.93
69980;BME280;57318;56.232;43.944;2022-12-05T10:20:51;101847.88;;;2.83;26.51
69980;BME280;57318;56.232;43.944;2022-12-05T10:26:11;101843.53;;;2.76;26.45
69980;BME280;57318;56.232;43.944;2022-12-05T10:31:43;101845.53;;;2.48;26.88
69980;BME280;57318;56.232;43.944;2022-12-05T10:34:16;101845.63;;;2.37;27.11
69980;BME280;57318;56.232;43.944;2022-12-05T10:36:54;101848.50;;;2.02;27.53
69980;BME280;57318;56.232;43.944;2022-12-05T10:39:21;101840.69;;;1.91;27.85
69980;BME280;57318;56.232;43.944;2022-12-05T10:41:47;101838.03;;;1.95;27.92
69980;BME280;57318;56.232;43.944;2022-12-05T10:44:13;101835.50;;;1.78;27.76
69980;BME280;57318;56.232;43.944;2022-12-05T10:46:39;101830.31;;;1.66;28.15
69980;BME280;57318;56.232;43.944;2022-12-05T10:49:10;101828.78;;;1.06;28.41
69980;BME280;57318;56.232;43.944;2022-12-05T10:51:37;101826.03;;;1.47;28.34
69980;BME280;57318;56.232;43.944;2022-12-05T10:54:22;101824.22;;;1.66;27.64
69980;BME280;57318;56.232;43.944;2022-12-05T10:56:51;101824.28;;;1.46;27.77
69980;BME280;57318;56.232;43.944;2022-12-05T10:59:23;101826.88;;;1.52;27.99
69980;BME280;57318;56.232;43.944;2022-12-05T11:01:52;101820.94;;;1.00;28.75
69980;BME280;57318;56.232;43.944;2022-12-05T11:04:50;101828.84;;;0.79;29.05
69980;BME280;57318;56.232;43.944;2022-12-05T11:09:48;101827.00;;;-0.24;30.66
69980;BME280;57318;56.232;43.944;2022-12-05T11:12:26;101818.19;;;-0.51;31.28
69980;BME280;57318;56.232;43.944;2022-12-05T11:17:39;101809.06;;;-1.33;33.16
69980;BME280;57318;56.232;43.944;2022-12-05T11:22:46;101803.50;;;-1.73;33.83
69980;BME280;57318;56.232;43.944;2022-12-05T11:25:31;101802.38;;;-2.03;34.18
69980;BME280;57318;56.232;43.944;2022-12-05T11:28:00;101796.00;;;-2.30;34.93
69980;BME280;57318;56.232;43.944;2022-12-05T11:33:42;101795.44;;;-2.79;35.96
69980;BME280;57318;56.232;43.944;2022-12-05T11:36:16;101796.91;;;-3.01;36.72
69980;BME280;57318;56.232;43.944;2022-12-05T11:38:44;101796.19;;;-3.49;37.78
69980;BME280;57318;56.232;43.944;2022-12-05T11:55:25;101773.22;;;-4.73;41.31
69980;BME280;57318;56.232;43.944;2022-12-05T12:09:20;101764.66;;;-8.22;49.77
69980;BME280;57318;56.232;43.944;2022-12-05T12:22:54;101764.16;;;-11.18;61.37
69980;BME280;57318;56.232;43.944;2022-12-05T12:39:22;101750.81;;;-12.20;68.39
69980;BME280;57318;56.232;43.944;2022-12-05T12:50:17;101727.81;;;-12.53;70.04
69980;BME280;57318;56.232;43.944;2022-12-05T12:55:49;101726.31;;;-12.66;71.12
69980;BME280;57318;56.232;43.944;2022-12-05T13:01:06;101718.59;;;-12.84;71.91
69980;BME280;57318;56.232;43.944;2022-12-05T13:06:25;101705.56;;;-12.89;73.10
69980;BME280;57318;56.232;43.944;2022-12-05T13:09:00;101706.09;;;-12.94;73.08
69980;BME280;57318;56.232;43.944;2022-12-05T13:11:28;101703.97;;;-13.03;73.36
69980;BME280;57318;56.232;43.944;2022-12-05T13:14:00;101704.75;;;-13.04;73.77
69980;BME280;57318;56.232;43.944;2022-12-05T13:16:33;101706.75;;;-12.98;73.98
69980;BME280;57318;56.232;43.944;2022-12-05T13:19:01;101703.06;;;-13.03;73.49
69980;BME280;57318;56.232;43.944;2022-12-05T13:21:30;101701.78;;;-13.12;73.76
69980;BME280;57318;56.232;43.944;2022-12-05T13:23:57;101701.56;;;-13.16;74.21
69980;BME280;57318;56.232;43.944;2022-12-05T13:26:28;101696.34;;;-13.18;74.53
69980;BME280;57318;56.232;43.944;2022-12-05T13:28:57;101701.97;;;-13.09;74.88
69980;BME280;57318;56.232;43.944;2022-12-05T13:31:43;101703.72;;;-13.08;74.43
69980;BME280;57318;56.232;43.944;2022-12-05T13:36:58;101705.63;;;-13.03;74.47
69980;BME280;57318;56.232;43.944;2022-12-05T13:39:54;101697.88;;;-13.05;74.73
69980;BME280;57318;56.232;43.944;2022-12-05T13:42:39;101701.97;;;-13.09;74.39
69980;BME280;57318;56.232;43.944;2022-12-05T13:45:17;101701.72;;;-13.13;74.65
69980;BME280;57318;56.232;43.944;2022-12-05T13:53:01;101688.84;;;-13.15;74.70
69980;BME280;57318;56.232;43.944;2022-12-05T13:57:57;101689.31;;;-13.22;74.76
69980;BME280;57318;56.232;43.944;2022-12-05T14:00:27;101691.53;;;-13.28;75.40
69980;BME280;57318;56.232;43.944;2022-12-05T14:02:55;101688.13;;;-13.29;75.40
69980;BME280;57318;56.232;43.944;2022-12-05T14:07:54;101682.78;;;-13.33;75.50
69980;BME280;57318;56.232;43.944;2022-12-05T14:13:37;101674.28;;;-13.32;75.42
69980;BME280;57318;56.232;43.944;2022-12-05T14:15:53;101672.47;;;-13.35;75.69
69980;BME280;57318;56.232;43.944;2022-12-05T14:18:40;101664.88;;;-13.33;75.90
69980;BME280;57318;56.232;43.944;2022-12-05T14:24:31;101665.28;;;-13.42;75.51
69980;BME280;57318;56.232;43.944;2022-12-05T14:27:09;101654.91;;;-13.45;75.86
69980;BME280;57318;56.232;43.944;2022-12-05T14:30:04;101657.22;;;-13.50;75.78
69980;BME280;57318;56.232;43.944;2022-12-05T14:32:40;101658.31;;;-13.61;75.84
69980;BME280;57318;56.232;43.944;2022-12-05T14:35:20;101650.31;;;-13.67;75.78
69980;BME280;57318;56.232;43.944;2022-12-05T14:38:01;101639.13;;;-13.69;76.17
69980;BME280;57318;56.232;43.944;2022-12-05T14:40:36;101634.81;;;-13.70;75.77
69980;BME280;57318;56.232;43.944;2022-12-05T14:43:06;101629.47;;;-13.75;75.78
69980;BME280;57318;56.232;43.944;2022-12-05T14:46:07;101625.91;;;-13.77;75.84
69980;BME280;57318;56.232;43.944;2022-12-05T14:48:41;101625.22;;;-13.74;75.91
69980;BME280;57318;56.232;43.944;2022-12-05T14:53:56;101620.81;;;-13.77;75.67
69980;BME280;57318;56.232;43.944;2022-12-05T14:56:27;101619.78;;;-13.81;75.46
69980;BME280;57318;56.232;43.944;2022-12-05T15:01:31;101611.00;;;-13.86;75.34
69980;BME280;57318;56.232;43.944;2022-12-05T15:06:53;101614.41;;;-14.02;75.72
69980;BME280;57318;56.232;43.944;2022-12-05T15:09:41;101613.59;;;-14.01;76.37
69980;BME280;57318;56.232;43.944;2022-12-05T15:12:15;101605.84;;;-14.02;75.82
69980;BME280;57318;56.232;43.944;2022-12-05T15:14:46;101599.06;;;-14.02;75.74
69980;BME280;57318;56.232;43.944;2022-12-05T15:17:18;101602.66;;;-13.98;76.39
69980;BME280;57318;56.232;43.944;2022-12-05T15:19:53;101600.28;;;-13.95;76.00
69980;BME280;57318;56.232;43.944;2022-12-05T15:22:21;101587.81;;;-13.89;75.84
69980;BME280;57318;56.232;43.944;2022-12-05T15:24:48;101588.94;;;-13.84;75.89
69980;BME280;57318;56.232;43.944;2022-12-05T15:27:15;101588.00;;;-13.86;75.65
69980;BME280;57318;56.232;43.944;2022-12-05T15:29:41;101582.22;;;-13.82;75.93
69980;BME280;57318;56.232;43.944;2022-12-05T15:34:41;101583.38;;;-13.76;76.07
69980;BME280;57318;56.232;43.944;2022-12-05T15:37:14;101579.91;;;-13.77;75.85
69980;BME280;57318;56.232;43.944;2022-12-05T15:40:09;101587.03;;;-13.71;75.87